createdAt,value
2023-09-21T00:01:44.874Z,1.80
2023-09-21T00:04:12.073Z,2.00
2023-09-21T00:06:39.380Z,2.13
2023-09-21T00:09:06.600Z,2.17
2023-09-21T00:11:42.415Z,2.00
2023-09-21T00:14:10.266Z,2.28
2023-09-21T00:16:37.256Z,2.20
2023-09-21T00:19:18.725Z,1.95
2023-09-21T00:21:45.842Z,2.08
2023-09-21T00:24:13.956Z,1.90
2023-09-21T00:26:42.168Z,1.85
2023-09-21T00:29:09.131Z,1.85
2023-09-21T00:31:36.259Z,1.90
2023-09-21T00:34:03.266Z,1.90
2023-09-21T00:36:30.905Z,2.22
2023-09-21T00:38:58.064Z,2.03
2023-09-21T00:41:27.213Z,2.30
2023-09-21T00:43:54.196Z,1.80
2023-09-21T00:46:23.236Z,1.70
2023-09-21T00:48:51.518Z,2.03
2023-09-21T00:51:18.602Z,2.10
2023-09-21T00:53:47.072Z,1.98
2023-09-21T00:56:18.759Z,1.85
2023-09-21T00:58:49.438Z,2.15
2023-09-21T01:01:17.800Z,2.00
2023-09-21T01:03:46.764Z,1.80
2023-09-21T01:06:18.291Z,1.90
2023-09-21T01:08:45.936Z,1.85
2023-09-21T01:11:15.730Z,2.10
2023-09-21T01:13:43.233Z,2.38
2023-09-21T01:16:12.957Z,2.25
2023-09-21T01:18:42.781Z,2.10
2023-09-21T01:21:11.512Z,2.28
2023-09-21T01:23:44.025Z,2.03
2023-09-21T01:26:14.929Z,2.28
2023-09-21T01:28:42.318Z,2.15
2023-09-21T01:31:14.739Z,2.55
2023-09-21T01:33:43.651Z,2.55
2023-09-21T01:36:16.848Z,2.60
2023-09-21T01:38:48.492Z,3.08
2023-09-21T01:41:17.554Z,2.72
2023-09-21T01:43:45.745Z,2.40
2023-09-21T01:46:14.292Z,2.80
2023-09-21T01:48:41.371Z,2.80
2023-09-21T01:51:09.091Z,2.70
2023-09-21T01:53:36.605Z,2.55
2023-09-21T01:56:03.884Z,2.17
2023-09-21T01:58:31.008Z,2.17
2023-09-21T02:00:57.919Z,2.60
2023-09-21T02:03:29.698Z,2.70
2023-09-21T02:05:59.285Z,2.83
2023-09-21T02:08:27.318Z,2.80
2023-09-21T02:10:54.602Z,2.78
2023-09-21T02:13:21.891Z,2.88
2023-09-21T02:15:53.620Z,2.63
2023-09-21T02:18:21.583Z,3.28
2023-09-21T02:20:56.034Z,3.20
2023-09-21T02:23:24.725Z,2.50
2023-09-21T02:25:53.552Z,3.00
2023-09-21T02:28:22.162Z,2.78
2023-09-21T02:30:50.184Z,2.67
2023-09-21T02:33:18.313Z,3.50
2023-09-21T02:35:48.494Z,3.25
2023-09-21T02:38:18.878Z,3.08
2023-09-21T02:40:47.361Z,3.00
2023-09-21T02:43:16.553Z,3.28
2023-09-21T02:45:46.385Z,2.80
2023-09-21T02:48:13.963Z,3.22
2023-09-21T02:50:41.877Z,2.75
2023-09-21T02:53:11.869Z,2.85
2023-09-21T02:55:40.834Z,2.65
2023-09-21T02:58:12.415Z,3.00
2023-09-21T03:00:45.391Z,2.85
2023-09-21T03:03:14.740Z,3.00
2023-09-21T03:05:47.553Z,3.22
2023-09-21T03:08:15.853Z,3.10
2023-09-21T03:10:47.003Z,3.13
2023-09-21T03:13:21.569Z,3.38
2023-09-21T03:15:54.496Z,3.38
2023-09-21T03:18:22.765Z,3.58
2023-09-21T03:20:53.407Z,3.63
2023-09-21T03:25:51.697Z,3.50
2023-09-21T03:28:24.078Z,4.13
2023-09-21T03:30:54.013Z,3.80
2023-09-21T03:33:22.940Z,3.85
2023-09-21T03:35:50.764Z,3.83
2023-09-21T03:38:20.652Z,3.75
2023-09-21T03:40:49.899Z,3.20
2023-09-21T03:43:17.418Z,3.63
2023-09-21T03:45:45.799Z,3.88
2023-09-21T03:48:13.914Z,4.13
2023-09-21T03:50:42.986Z,3.85
2023-09-21T03:53:11.204Z,3.60
2023-09-21T03:55:40.303Z,3.55
2023-09-21T03:58:09.506Z,3.58
2023-09-21T04:00:37.488Z,2.10
2023-09-21T04:03:10.748Z,1.27
2023-09-21T04:05:43.782Z,1.20
2023-09-21T04:08:11.298Z,0.90
2023-09-21T04:10:38.484Z,0.90
2023-09-21T04:13:07.280Z,0.80
2023-09-21T04:15:35.176Z,0.80
2023-09-21T04:18:03.807Z,0.90
2023-09-21T04:20:37.428Z,1.20
2023-09-21T04:23:05.451Z,0.90
2023-09-21T04:25:34.354Z,1.20
2023-09-21T04:28:05.170Z,1.00
2023-09-21T04:30:36.880Z,1.10
2023-09-21T04:33:07.242Z,1.45
2023-09-21T04:35:34.255Z,1.02
2023-09-21T04:38:01.902Z,0.80
2023-09-21T04:40:28.969Z,1.05
2023-09-21T04:42:56.532Z,1.13
2023-09-21T04:45:23.914Z,0.95
2023-09-21T04:47:53.820Z,0.90
2023-09-21T04:50:20.866Z,1.20
2023-09-21T04:52:51.009Z,1.15
2023-09-21T04:55:18.895Z,1.30
2023-09-21T04:57:46.904Z,1.30
2023-09-21T05:00:18.175Z,1.30
2023-09-21T05:02:46.062Z,1.35
2023-09-21T05:05:15.627Z,1.50
2023-09-21T05:07:43.411Z,1.27
2023-09-21T05:10:13.683Z,1.27
2023-09-21T05:12:41.517Z,2.47
2023-09-21T05:15:10.692Z,1.33
2023-09-21T05:17:38.174Z,1.20
2023-09-21T05:20:06.939Z,1.00
2023-09-21T05:22:34.667Z,1.20
2023-09-21T05:25:02.327Z,0.95
2023-09-21T05:27:31.184Z,1.10
2023-09-21T05:30:02.554Z,1.50
2023-09-21T05:32:38.133Z,1.00
2023-09-21T05:35:07.422Z,1.08
2023-09-21T05:37:37.215Z,1.25
2023-09-21T05:40:12.791Z,1.30
2023-09-21T05:42:40.338Z,0.85
2023-09-21T05:45:08.298Z,0.85
2023-09-21T05:47:35.435Z,1.13
2023-09-21T05:50:02.684Z,1.20
2023-09-21T05:52:33.992Z,1.25
2023-09-21T05:55:02.297Z,1.10
2023-09-21T05:57:29.359Z,1.10
2023-09-21T05:59:56.591Z,1.15
2023-09-21T06:02:24.981Z,1.20
2023-09-21T06:04:52.339Z,1.15
2023-09-21T06:07:19.291Z,1.10
2023-09-21T06:09:47.209Z,1.40
2023-09-21T06:12:14.500Z,1.10
2023-09-21T06:14:42.749Z,1.20
2023-09-21T06:17:14.575Z,1.10
2023-09-21T06:19:45.510Z,1.10
2023-09-21T06:22:14.045Z,1.10
2023-09-21T06:24:43.602Z,1.30
2023-09-21T06:27:10.887Z,1.27
2023-09-21T06:29:37.897Z,1.10
2023-09-21T06:32:13.143Z,1.20
2023-09-21T06:34:44.388Z,1.10
2023-09-21T06:37:13.045Z,0.95
2023-09-21T06:39:43.224Z,1.17
2023-09-21T06:42:10.431Z,1.23
2023-09-21T06:44:38.301Z,1.55
2023-09-21T06:47:05.559Z,1.20
2023-09-21T06:49:35.694Z,1.33
2023-09-21T06:52:04.581Z,1.50
2023-09-21T06:54:32.792Z,1.50
2023-09-21T06:57:05.814Z,1.38
2023-09-21T06:59:39.752Z,1.70
2023-09-21T07:02:07.662Z,2.20
2023-09-21T07:04:36.429Z,1.73
2023-09-21T07:07:07.289Z,1.80
2023-09-21T07:09:37.783Z,1.77
2023-09-21T07:12:07.101Z,1.83
2023-09-21T07:14:37.138Z,1.92
2023-09-21T07:17:07.775Z,1.73
2023-09-21T07:19:38.615Z,2.10
2023-09-21T07:22:05.825Z,1.27
2023-09-21T07:24:33.206Z,1.58
2023-09-21T07:27:01.853Z,1.20
2023-09-21T07:29:29.238Z,1.45
2023-09-21T07:31:56.343Z,1.00
2023-09-21T07:34:23.308Z,1.70
2023-09-21T07:36:50.309Z,1.48
2023-09-21T07:39:18.141Z,1.30
2023-09-21T07:41:48.084Z,1.25
2023-09-21T07:44:17.481Z,1.52
2023-09-21T07:46:44.948Z,1.48
2023-09-21T07:49:13.383Z,1.95
2023-09-21T07:51:40.693Z,2.15
2023-09-21T07:54:08.055Z,2.22
2023-09-21T07:56:37.602Z,2.33
2023-09-21T07:59:10.963Z,2.40
2023-09-21T08:01:38.494Z,2.30
2023-09-21T08:04:06.551Z,2.30
2023-09-21T08:06:34.572Z,1.60
2023-09-21T08:09:01.668Z,1.50
2023-09-21T08:11:29.102Z,1.77
2023-09-21T08:13:57.160Z,1.55
2023-09-21T08:16:24.442Z,1.50
2023-09-21T08:18:51.750Z,2.13
2023-09-21T08:21:19.378Z,1.73
2023-09-21T08:23:47.592Z,1.60
2023-09-21T08:26:15.321Z,1.80
2023-09-21T08:28:43.157Z,1.80
2023-09-21T08:31:10.852Z,1.45
2023-09-21T08:33:38.226Z,2.03
2023-09-21T08:36:06.687Z,1.75
2023-09-21T08:38:34.106Z,2.00
2023-09-21T08:41:02.262Z,1.80
2023-09-21T08:43:30.829Z,1.63
2023-09-21T08:45:58.935Z,1.80
2023-09-21T08:48:28.067Z,2.22
2023-09-21T08:50:59.303Z,2.33
2023-09-21T08:53:27.352Z,2.42
2023-09-21T08:55:58.243Z,2.03
2023-09-21T08:58:28.726Z,1.80
2023-09-21T09:00:57.787Z,1.85
2023-09-21T09:03:27.190Z,1.70
2023-09-21T09:06:00.012Z,1.80
2023-09-21T09:08:29.206Z,2.08
2023-09-21T09:10:57.252Z,1.75
2023-09-21T09:13:34.019Z,1.90
2023-09-21T09:16:01.631Z,2.25
2023-09-21T09:18:29.062Z,2.40
2023-09-21T09:20:56.604Z,1.95
2023-09-21T09:23:23.608Z,2.40
2023-09-21T09:25:52.354Z,2.40
2023-09-21T09:28:19.874Z,2.10
2023-09-21T09:30:47.303Z,2.67
2023-09-21T09:33:17.241Z,2.75
2023-09-21T09:35:46.563Z,1.92
2023-09-21T09:38:15.539Z,1.98
2023-09-21T09:40:43.994Z,2.42
2023-09-21T09:43:16.472Z,1.83
2023-09-21T09:45:48.099Z,2.83
2023-09-21T09:48:20.827Z,2.50
2023-09-21T09:50:56.407Z,2.20
2023-09-21T09:53:27.623Z,2.67
2023-09-21T09:55:57.515Z,2.13
2023-09-21T09:58:28.335Z,2.60
2023-09-21T10:00:56.897Z,2.90
2023-09-21T10:03:26.763Z,2.13
2023-09-21T10:05:55.889Z,2.30
2023-09-21T10:08:26.925Z,2.30
2023-09-21T10:10:57.581Z,1.90
2023-09-21T10:13:29.208Z,2.08
2023-09-21T10:16:03.217Z,2.22
2023-09-21T10:18:36.684Z,2.20
2023-09-21T10:21:35.397Z,2.20
2023-09-21T10:24:09.755Z,2.90
2023-09-21T10:26:40.124Z,2.47
2023-09-21T10:29:13.259Z,2.00
2023-09-21T10:31:44.681Z,1.88
2023-09-21T10:34:20.256Z,2.30
2023-09-21T10:36:52.353Z,2.80
2023-09-21T10:39:27.628Z,2.28
2023-09-21T10:41:57.079Z,2.20
2023-09-21T10:45:06.268Z,2.90
2023-09-21T10:47:49.262Z,2.70
2023-09-21T10:50:23.226Z,2.05
2023-09-21T10:52:56.835Z,1.70
2023-09-21T10:55:23.935Z,1.50
2023-09-21T10:57:54.602Z,2.28
2023-09-21T11:00:23.619Z,1.95
2023-09-21T11:02:52.714Z,1.52
2023-09-21T11:05:21.514Z,2.30
2023-09-21T11:07:52.420Z,1.98
2023-09-21T11:10:20.041Z,1.80
2023-09-21T11:12:47.142Z,2.45
2023-09-21T11:15:18.657Z,1.77
2023-09-21T11:17:47.483Z,2.08
2023-09-21T11:20:19.430Z,2.10
2023-09-21T11:22:48.651Z,2.00
2023-09-21T11:25:19.413Z,2.25
2023-09-21T11:27:47.026Z,2.25
2023-09-21T11:30:15.008Z,2.20
2023-09-21T11:32:45.065Z,2.22
2023-09-21T11:35:12.950Z,2.50
2023-09-21T11:37:40.152Z,2.10
2023-09-21T11:40:12.845Z,2.30
2023-09-21T11:42:47.325Z,2.03
2023-09-21T11:45:18.676Z,1.92
2023-09-21T11:47:58.406Z,1.98
2023-09-21T11:50:32.130Z,1.63
2023-09-21T11:52:59.756Z,1.63
2023-09-21T11:55:31.661Z,1.60
2023-09-21T11:58:09.837Z,1.77
2023-09-21T12:00:49.983Z,2.10
2023-09-21T12:03:25.086Z,1.30
2023-09-21T12:05:58.101Z,2.78
2023-09-21T12:08:27.903Z,1.42
2023-09-21T12:10:55.214Z,1.40
2023-09-21T12:13:23.105Z,1.60
2023-09-21T12:15:54.117Z,1.15
2023-09-21T12:18:22.871Z,1.42
2023-09-21T12:20:51.397Z,1.40
2023-09-21T12:23:18.709Z,1.50
2023-09-21T12:25:46.987Z,1.17
2023-09-21T12:28:14.211Z,1.60
2023-09-21T12:30:45.693Z,1.30
2023-09-21T12:33:30.567Z,1.20
2023-09-21T12:36:06.379Z,1.17
2023-09-21T12:38:34.658Z,1.20
2023-09-21T12:41:02.057Z,1.33
2023-09-21T12:43:31.679Z,1.20
2023-09-21T12:46:00.308Z,1.20
2023-09-21T12:48:27.486Z,1.23
2023-09-21T12:50:54.559Z,1.00
2023-09-21T12:53:23.194Z,1.40
2023-09-21T12:55:50.369Z,1.00
2023-09-21T12:58:17.466Z,1.10
2023-09-21T13:00:46.697Z,1.13
2023-09-21T13:03:14.985Z,1.20
2023-09-21T13:05:46.141Z,1.38
2023-09-21T13:08:14.025Z,1.77
2023-09-21T13:10:41.541Z,1.50
2023-09-21T13:13:12.157Z,1.13
2023-09-21T13:15:40.190Z,1.42
2023-09-21T13:18:07.565Z,1.25
2023-09-21T13:20:34.586Z,1.63
2023-09-21T13:23:01.661Z,2.17
2023-09-21T13:25:29.120Z,2.00
2023-09-21T13:27:56.237Z,2.28
2023-09-21T13:30:23.262Z,2.30
2023-09-21T13:32:50.777Z,2.50
2023-09-21T13:35:17.952Z,2.50
2023-09-21T13:37:46.090Z,2.30
2023-09-21T13:40:13.329Z,2.75
2023-09-21T13:42:40.965Z,2.70
2023-09-21T13:45:11.209Z,2.60
2023-09-21T13:47:40.963Z,2.53
2023-09-21T13:50:09.482Z,1.95
2023-09-21T13:52:37.832Z,2.20
2023-09-21T13:55:17.140Z,1.67
2023-09-21T13:57:46.140Z,2.35
2023-09-21T14:00:15.961Z,2.10
2023-09-21T14:02:48.358Z,1.50
2023-09-21T14:05:20.322Z,2.00
2023-09-21T14:07:47.923Z,1.95
2023-09-21T14:10:15.894Z,1.50
2023-09-21T14:12:43.208Z,1.30
2023-09-21T14:15:10.877Z,1.30
2023-09-21T14:17:41.622Z,1.80
2023-09-21T14:20:12.613Z,1.48
2023-09-21T14:22:42.014Z,1.20
2023-09-21T14:25:09.998Z,0.98
2023-09-21T14:27:37.594Z,0.80
2023-09-21T14:30:05.632Z,1.00
2023-09-21T14:32:34.062Z,0.73
2023-09-21T14:35:03.345Z,0.82
2023-09-21T14:37:30.589Z,1.13
2023-09-21T14:40:00.634Z,0.80
2023-09-21T14:42:27.863Z,0.80
2023-09-21T14:44:55.523Z,0.93
2023-09-21T14:47:24.226Z,0.77
2023-09-21T14:49:52.100Z,0.80
2023-09-21T14:52:21.151Z,0.88
2023-09-21T14:54:50.248Z,0.98
2023-09-21T14:57:17.449Z,1.17
2023-09-21T14:59:45.156Z,1.10
2023-09-21T15:02:12.702Z,0.88
2023-09-21T15:04:44.369Z,1.05
2023-09-21T15:07:13.963Z,1.00
2023-09-21T15:09:41.423Z,1.00
2023-09-21T15:12:08.938Z,0.93
2023-09-21T15:14:36.318Z,1.20
2023-09-21T15:17:03.486Z,1.20
2023-09-21T15:19:30.577Z,1.30
2023-09-21T15:21:58.013Z,1.05
2023-09-21T15:24:25.251Z,1.40
2023-09-21T15:26:52.860Z,1.25
2023-09-21T15:29:19.841Z,1.23
2023-09-21T15:31:49.379Z,1.38
2023-09-21T15:34:16.797Z,1.10
2023-09-21T15:36:44.058Z,1.35
2023-09-21T15:39:11.097Z,1.02
2023-09-21T15:41:38.436Z,1.33
2023-09-21T15:44:05.821Z,1.20
2023-09-21T15:46:33.754Z,1.30
2023-09-21T15:49:03.926Z,1.20
2023-09-21T15:51:31.362Z,1.95
2023-09-21T15:53:58.989Z,1.75
2023-09-21T15:56:26.039Z,3.80
2023-09-21T15:58:53.031Z,7.47
2023-09-21T16:01:20.037Z,10.00
2023-09-21T16:03:48.462Z,10.15
2023-09-21T16:06:15.869Z,8.93
2023-09-21T16:08:43.529Z,8.63
2023-09-21T16:11:10.803Z,7.50
2023-09-21T16:13:37.922Z,7.88
2023-09-21T16:16:05.160Z,7.25
2023-09-21T16:18:32.283Z,6.63
2023-09-21T16:21:00.336Z,7.05
2023-09-21T16:23:42.698Z,5.80
2023-09-21T16:26:09.841Z,5.80
2023-09-21T16:28:37.424Z,5.57
2023-09-21T16:31:05.200Z,5.10
2023-09-21T16:33:33.096Z,4.63
2023-09-21T16:36:03.120Z,4.65
2023-09-21T16:38:33.633Z,4.75
2023-09-21T16:41:03.054Z,4.40
2023-09-21T16:43:30.095Z,3.90
2023-09-21T16:45:57.463Z,4.05
2023-09-21T16:48:24.553Z,4.30
2023-09-21T16:50:51.601Z,4.75
2023-09-21T16:53:18.517Z,4.30
2023-09-21T16:55:45.554Z,3.88
2023-09-21T16:58:13.109Z,3.88
2023-09-21T17:00:40.457Z,3.92
2023-09-21T17:03:08.071Z,3.65
2023-09-21T17:05:35.192Z,3.20
2023-09-21T17:08:02.681Z,3.00
2023-09-21T17:10:30.904Z,3.25
2023-09-21T17:12:58.262Z,3.20
2023-09-21T17:15:25.706Z,2.60
2023-09-21T17:17:52.853Z,2.80
2023-09-21T17:20:20.049Z,3.10
2023-09-21T17:22:46.985Z,2.65
2023-09-21T17:25:14.051Z,3.03
2023-09-21T17:27:44.088Z,3.03
2023-09-21T17:30:13.341Z,3.15
2023-09-21T17:32:41.021Z,3.30
2023-09-21T17:35:08.777Z,3.13
2023-09-21T17:37:36.176Z,4.00
2023-09-21T17:40:05.444Z,4.13
2023-09-21T17:42:33.619Z,3.63
2023-09-21T17:45:00.711Z,3.78
2023-09-21T17:47:27.670Z,3.85
2023-09-21T17:49:54.642Z,5.88
2023-09-21T17:52:21.696Z,7.63
2023-09-21T17:54:48.679Z,7.57
2023-09-21T17:57:16.209Z,8.15
2023-09-21T17:59:43.559Z,8.63
2023-09-21T18:02:11.471Z,9.02
2023-09-21T18:04:39.538Z,8.05
2023-09-21T18:07:07.027Z,6.68
2023-09-21T18:09:34.025Z,6.10
2023-09-21T18:12:01.015Z,4.93
2023-09-21T18:14:28.117Z,4.10
2023-09-21T18:16:54.994Z,4.35
2023-09-21T18:19:21.957Z,4.07
2023-09-21T18:21:48.976Z,4.40
2023-09-21T18:24:16.024Z,4.15
2023-09-21T18:26:43.378Z,4.50
2023-09-21T18:29:11.718Z,4.13
2023-09-21T18:31:41.403Z,3.33
2023-09-21T18:34:08.888Z,3.10
2023-09-21T18:36:36.184Z,3.17
2023-09-21T18:39:03.221Z,2.78
2023-09-21T18:41:30.319Z,2.17
2023-09-21T18:43:57.621Z,2.40
2023-09-21T18:46:24.916Z,2.10
2023-09-21T18:48:51.936Z,1.83
2023-09-21T18:51:19.377Z,2.08
2023-09-21T18:53:46.405Z,2.00
2023-09-21T18:56:14.611Z,2.25
2023-09-21T18:58:42.246Z,2.85
2023-09-21T19:01:13.326Z,3.58
2023-09-21T19:03:41.120Z,3.80
2023-09-21T19:06:08.921Z,4.07
2023-09-21T19:08:35.952Z,4.03
2023-09-21T19:11:03.603Z,3.95
2023-09-21T19:13:31.068Z,3.83
2023-09-21T19:15:58.106Z,4.55
2023-09-21T19:18:25.352Z,5.03
2023-09-21T19:20:52.451Z,4.85
2023-09-21T19:23:21.549Z,4.93
2023-09-21T19:25:48.554Z,4.60
2023-09-21T19:28:15.639Z,4.97
2023-09-21T19:30:43.558Z,4.82
2023-09-21T19:33:11.466Z,4.82
2023-09-21T19:35:38.526Z,4.70
2023-09-21T19:38:05.685Z,5.18
2023-09-21T19:40:32.786Z,4.78
2023-09-21T19:43:00.154Z,5.03
2023-09-21T19:45:27.427Z,5.03
2023-09-21T19:47:54.679Z,5.68
2023-09-21T19:50:22.257Z,4.97
2023-09-21T19:52:49.726Z,5.35
2023-09-21T19:55:16.690Z,4.70
2023-09-21T19:57:48.590Z,4.68
2023-09-21T20:00:17.674Z,4.80
2023-09-21T20:02:45.311Z,4.68
2023-09-21T20:05:13.287Z,4.90
2023-09-21T20:07:40.510Z,4.68
2023-09-21T20:10:08.076Z,4.10
2023-09-21T20:12:35.275Z,4.60
2023-09-21T20:15:04.939Z,4.82
2023-09-21T20:17:32.692Z,4.75
2023-09-21T20:19:59.810Z,4.97
2023-09-21T20:22:27.625Z,4.85
2023-09-21T20:24:56.096Z,5.22
2023-09-21T20:27:23.493Z,5.32
2023-09-21T20:29:50.641Z,5.75
2023-09-21T20:32:17.762Z,5.82
2023-09-21T20:34:44.753Z,5.72
2023-09-21T20:37:11.972Z,5.25
2023-09-21T20:39:39.283Z,5.45
2023-09-21T20:42:06.754Z,6.05
2023-09-21T20:44:33.970Z,5.53
2023-09-21T20:47:00.974Z,5.30
2023-09-21T20:49:29.731Z,5.50
2023-09-21T20:51:56.704Z,5.60
2023-09-21T20:54:24.386Z,6.10
2023-09-21T20:56:53.423Z,6.10
2023-09-21T20:59:20.489Z,5.43
2023-09-21T21:01:47.611Z,5.78
2023-09-21T21:04:16.400Z,6.80
2023-09-21T21:06:43.961Z,6.82
2023-09-21T21:09:11.895Z,6.30
2023-09-21T21:11:39.459Z,6.88
2023-09-21T21:14:06.434Z,7.63
2023-09-21T21:16:33.508Z,7.38
2023-09-21T21:19:00.596Z,7.18
2023-09-21T21:21:27.703Z,7.25
2023-09-21T21:23:54.622Z,8.10
2023-09-21T21:26:21.517Z,7.40
2023-09-21T21:28:48.411Z,8.38
2023-09-21T21:31:16.221Z,7.00
2023-09-21T21:33:43.525Z,7.95
2023-09-21T21:36:10.606Z,7.32
2023-09-21T21:38:37.637Z,7.68
2023-09-21T21:41:11.047Z,7.55
2023-09-21T21:43:40.499Z,7.13
2023-09-21T21:46:07.939Z,7.43
2023-09-21T21:48:35.369Z,7.13
2023-09-21T21:51:03.179Z,7.30
2023-09-21T21:53:30.450Z,6.63
2023-09-21T21:55:57.709Z,6.47
2023-09-21T21:58:24.754Z,6.55
2023-09-21T22:00:51.902Z,6.28
2023-09-21T22:03:19.613Z,6.55
2023-09-21T22:05:46.989Z,5.90
2023-09-21T22:08:14.190Z,5.85
2023-09-21T22:10:42.955Z,5.00
2023-09-21T22:13:10.836Z,5.13
2023-09-21T22:15:38.663Z,4.55
2023-09-21T22:18:08.311Z,4.80
2023-09-21T22:20:36.386Z,4.88
2023-09-21T22:23:04.625Z,5.20
2023-09-21T22:25:35.240Z,5.03
2023-09-21T22:28:09.425Z,4.68
2023-09-21T22:30:39.959Z,5.00
2023-09-21T22:33:08.003Z,4.90
2023-09-21T22:35:37.684Z,4.90
2023-09-21T22:38:14.967Z,5.05
2023-09-21T22:40:47.281Z,5.70
2023-09-21T22:43:14.268Z,5.70
2023-09-21T22:45:41.383Z,5.78
2023-09-21T22:48:08.484Z,6.70
2023-09-21T22:50:36.618Z,6.55
2023-09-21T22:53:04.322Z,6.93
2023-09-21T22:55:31.726Z,6.88
2023-09-21T22:57:59.191Z,7.00
2023-09-21T23:00:26.449Z,6.95
2023-09-21T23:02:54.552Z,7.07
2023-09-21T23:05:21.720Z,6.43
2023-09-21T23:07:49.319Z,6.70
2023-09-21T23:10:17.444Z,6.13
2023-09-21T23:12:46.219Z,5.93
2023-09-21T23:15:14.871Z,5.47
2023-09-21T23:17:42.879Z,5.38
2023-09-21T23:20:18.654Z,4.95
2023-09-21T23:22:47.544Z,4.13
2023-09-21T23:25:15.897Z,4.40
2023-09-21T23:27:43.384Z,3.97
2023-09-21T23:30:13.972Z,4.03
2023-09-21T23:32:41.357Z,3.63
2023-09-21T23:35:10.022Z,3.30
2023-09-21T23:37:41.543Z,4.20
2023-09-21T23:40:09.864Z,3.10
2023-09-21T23:42:43.168Z,3.03
2023-09-21T23:45:14.812Z,2.85
2023-09-21T23:47:43.265Z,3.45
2023-09-21T23:50:13.519Z,3.38
2023-09-21T23:52:41.785Z,3.33
2023-09-21T23:55:11.384Z,3.25
2023-09-21T23:57:38.956Z,3.50
